createdAt,value
2023-05-19T00:02:08.974Z,10.30
2023-05-19T00:04:37.132Z,11.40
2023-05-19T00:07:05.125Z,12.50
2023-05-19T00:09:32.521Z,11.30
2023-05-19T00:12:00.381Z,10.40
2023-05-19T00:14:28.600Z,11.50
2023-05-19T00:16:57.520Z,11.20
2023-05-19T00:19:25.635Z,10.90
2023-05-19T00:21:52.784Z,10.40
2023-05-19T00:24:19.837Z,9.40
2023-05-19T00:26:46.941Z,11.90
2023-05-19T00:29:17.946Z,11.90
2023-05-19T00:31:44.989Z,11.10
2023-05-19T00:34:12.140Z,10.30
2023-05-19T00:36:39.762Z,11.40
2023-05-19T00:39:06.896Z,11.10
2023-05-19T00:41:33.978Z,10.60
2023-05-19T00:44:01.147Z,10.90
2023-05-19T00:46:29.903Z,10.70
2023-05-19T00:48:57.077Z,10.40
2023-05-19T00:51:26.434Z,11.80
2023-05-19T00:53:53.855Z,10.80
2023-05-19T00:56:21.350Z,12.00
2023-05-19T00:58:50.703Z,12.50
2023-05-19T01:01:18.514Z,11.40
2023-05-19T01:03:48.262Z,9.90
2023-05-19T01:06:15.567Z,13.10
2023-05-19T01:08:42.618Z,11.20
2023-05-19T01:11:10.350Z,11.00
2023-05-19T01:13:39.712Z,12.50
2023-05-19T01:16:32.859Z,13.50
2023-05-19T01:19:30.347Z,12.50
2023-05-19T01:22:14.139Z,12.50
2023-05-19T01:25:12.568Z,10.30
2023-05-19T01:28:08.473Z,10.60
2023-05-19T01:30:40.051Z,11.20
2023-05-19T01:33:11.019Z,11.60
2023-05-19T01:35:40.375Z,14.50
2023-05-19T01:38:09.965Z,12.40
2023-05-19T01:40:39.286Z,13.40
2023-05-19T01:43:12.059Z,12.90
2023-05-19T01:45:40.115Z,12.50
2023-05-19T01:48:09.920Z,14.60
2023-05-19T01:50:40.420Z,12.70
2023-05-19T01:53:07.829Z,11.40
2023-05-19T01:55:38.611Z,12.80
2023-05-19T01:58:27.295Z,11.60
2023-05-19T02:01:12.960Z,14.70
2023-05-19T02:04:21.665Z,12.50
2023-05-19T02:07:25.985Z,12.10
2023-05-19T02:09:54.424Z,12.30
2023-05-19T02:12:41.044Z,11.00
2023-05-19T02:15:15.904Z,13.90
2023-05-19T02:17:47.779Z,11.70
2023-05-19T02:20:15.809Z,11.50
2023-05-19T02:22:43.791Z,13.30
2023-05-19T02:25:10.994Z,13.00
2023-05-19T02:27:38.452Z,13.70
2023-05-19T02:30:06.625Z,12.60
2023-05-19T02:32:34.119Z,12.10
2023-05-19T02:35:01.502Z,14.70
2023-05-19T02:37:28.840Z,16.20
2023-05-19T02:39:56.662Z,15.30
2023-05-19T02:42:23.870Z,14.60
2023-05-19T02:44:52.173Z,13.80
2023-05-19T02:47:19.215Z,12.40
2023-05-19T02:49:46.366Z,12.40
2023-05-19T02:52:13.450Z,15.10
2023-05-19T02:54:40.667Z,19.00
2023-05-19T02:57:07.956Z,13.30
2023-05-19T02:59:35.145Z,13.50
2023-05-19T03:02:02.720Z,14.10
2023-05-19T03:04:30.111Z,15.00
2023-05-19T03:06:57.634Z,14.10
2023-05-19T03:09:24.896Z,14.80
2023-05-19T03:11:52.049Z,16.30
2023-05-19T03:14:23.282Z,15.30
2023-05-19T03:16:50.933Z,15.00
2023-05-19T03:19:18.156Z,12.80
2023-05-19T03:21:45.889Z,15.10
2023-05-19T03:24:13.412Z,12.80
2023-05-19T03:26:41.608Z,15.70
2023-05-19T03:29:08.904Z,22.90
2023-05-19T03:31:37.112Z,17.70
2023-05-19T03:34:04.279Z,19.30
2023-05-19T03:36:54.315Z,20.10
2023-05-19T03:39:21.817Z,19.80
2023-05-19T03:41:49.367Z,18.50
2023-05-19T03:44:16.677Z,16.30
2023-05-19T03:46:43.864Z,20.50
2023-05-19T03:49:46.338Z,16.00
2023-05-19T03:52:46.900Z,16.90
2023-05-19T03:55:34.167Z,20.70
2023-05-19T03:58:02.078Z,16.30
2023-05-19T04:00:29.670Z,13.50
2023-05-19T04:02:57.161Z,19.80
2023-05-19T04:05:24.312Z,15.20
2023-05-19T04:07:51.495Z,19.80
2023-05-19T04:10:19.588Z,16.00
2023-05-19T04:12:47.652Z,16.50
2023-05-19T04:15:16.111Z,15.20
2023-05-19T04:17:43.271Z,17.80
2023-05-19T04:20:11.057Z,24.20
2023-05-19T04:22:38.041Z,14.20
2023-05-19T04:25:05.649Z,18.60
2023-05-19T04:27:36.083Z,17.10
2023-05-19T04:30:04.553Z,20.80
2023-05-19T04:32:31.890Z,23.80
2023-05-19T04:34:59.472Z,21.50
2023-05-19T04:37:27.737Z,17.50
2023-05-19T04:39:55.271Z,15.70
2023-05-19T04:42:25.770Z,17.60
2023-05-19T04:44:53.106Z,19.10
2023-05-19T04:47:21.040Z,19.40
2023-05-19T04:49:48.347Z,19.10
2023-05-19T04:52:21.212Z,18.70
2023-05-19T04:54:48.315Z,19.00
2023-05-19T04:57:15.547Z,17.00
2023-05-19T04:59:42.580Z,16.50
2023-05-19T05:02:10.572Z,16.40
2023-05-19T05:04:41.940Z,13.20
2023-05-19T05:07:10.200Z,14.10
2023-05-19T05:09:37.904Z,15.00
2023-05-19T05:12:08.668Z,17.60
2023-05-19T05:14:36.734Z,18.00
2023-05-19T05:17:04.064Z,17.80
2023-05-19T05:19:32.397Z,17.80
2023-05-19T05:22:00.370Z,13.30
2023-05-19T05:24:27.804Z,14.90
2023-05-19T05:26:58.583Z,16.80
2023-05-19T05:29:26.845Z,13.50
2023-05-19T05:31:54.315Z,13.00
2023-05-19T05:34:22.530Z,14.70
2023-05-19T05:36:50.626Z,14.60
2023-05-19T05:39:17.895Z,13.40
2023-05-19T05:41:45.399Z,13.20
2023-05-19T05:44:15.205Z,15.30
2023-05-19T05:46:44.003Z,14.50
2023-05-19T05:49:12.912Z,14.90
2023-05-19T05:51:51.114Z,12.40
2023-05-19T05:54:32.183Z,14.10
2023-05-19T05:56:59.612Z,15.40
2023-05-19T05:59:27.083Z,17.00
2023-05-19T06:01:54.364Z,13.00
2023-05-19T06:04:21.841Z,14.10
2023-05-19T06:06:48.945Z,13.50
2023-05-19T06:09:19.302Z,15.40
2023-05-19T06:11:46.722Z,15.10
2023-05-19T06:14:14.053Z,27.60
2023-05-19T06:17:16.248Z,14.60
2023-05-19T06:19:43.364Z,15.00
2023-05-19T06:22:10.457Z,12.60
2023-05-19T06:24:39.444Z,12.20
2023-05-19T06:27:08.790Z,13.10
2023-05-19T06:29:35.880Z,12.20
2023-05-19T06:32:04.349Z,12.60
2023-05-19T06:34:31.933Z,13.90
2023-05-19T06:36:59.331Z,12.30
2023-05-19T06:39:26.548Z,12.10
2023-05-19T06:41:53.877Z,13.20
2023-05-19T06:44:45.433Z,13.60
2023-05-19T06:50:56.279Z,14.30
2023-05-19T06:53:24.346Z,13.10
2023-05-19T06:55:59.457Z,13.10
2023-05-19T06:58:41.642Z,13.80
2023-05-19T07:01:08.928Z,15.50
2023-05-19T07:03:41.343Z,14.10
2023-05-19T07:06:09.116Z,13.10
2023-05-19T07:08:36.712Z,13.20
2023-05-19T07:11:04.505Z,12.10
2023-05-19T07:13:32.513Z,12.90
2023-05-19T07:15:59.644Z,12.70
2023-05-19T07:18:31.321Z,12.80
2023-05-19T07:20:58.699Z,13.70
2023-05-19T07:23:25.832Z,13.20
2023-05-19T07:25:56.132Z,11.60
2023-05-19T07:28:24.015Z,14.00
2023-05-19T07:30:51.456Z,11.70
2023-05-19T07:33:18.720Z,12.60
2023-05-19T07:35:46.142Z,14.20
2023-05-19T07:38:13.387Z,12.30
2023-05-19T07:40:40.550Z,12.90
2023-05-19T07:43:07.726Z,12.80
2023-05-19T07:45:34.813Z,13.50
2023-05-19T07:48:01.931Z,13.60
2023-05-19T07:50:29.430Z,15.80
2023-05-19T07:52:56.496Z,12.90
2023-05-19T07:55:23.728Z,11.80
2023-05-19T07:57:50.954Z,15.20
2023-05-19T08:00:18.248Z,12.40
2023-05-19T08:02:45.535Z,12.00
2023-05-19T08:05:12.750Z,11.40
2023-05-19T08:07:39.788Z,15.90
2023-05-19T08:10:07.502Z,13.50
2023-05-19T08:12:34.612Z,11.40
2023-05-19T08:15:02.029Z,11.30
2023-05-19T08:17:29.339Z,13.40
2023-05-19T08:19:56.422Z,11.50
2023-05-19T08:22:23.730Z,11.20
2023-05-19T08:24:51.260Z,13.10
2023-05-19T08:27:18.552Z,11.70
2023-05-19T08:29:45.614Z,10.70
2023-05-19T08:32:13.465Z,10.30
2023-05-19T08:34:41.131Z,11.70
2023-05-19T08:37:08.454Z,11.90
2023-05-19T08:39:36.253Z,10.30
2023-05-19T08:42:04.674Z,13.80
2023-05-19T08:44:31.958Z,12.40
2023-05-19T08:47:04.561Z,12.40
2023-05-19T08:49:57.595Z,11.90
2023-05-19T08:53:08.142Z,12.10
2023-05-19T08:55:43.536Z,13.00
2023-05-19T08:58:12.304Z,11.30
2023-05-19T09:00:39.847Z,14.30
2023-05-19T09:03:23.282Z,11.80
2023-05-19T09:06:13.332Z,11.20
2023-05-19T09:08:41.704Z,10.30
2023-05-19T09:11:10.171Z,9.60
2023-05-19T09:13:37.318Z,12.20
2023-05-19T09:16:04.892Z,10.90
2023-05-19T09:18:32.156Z,12.50
2023-05-19T09:21:02.517Z,10.60
2023-05-19T09:23:33.103Z,11.50
2023-05-19T09:26:08.064Z,9.80
2023-05-19T09:28:37.333Z,10.60
2023-05-19T09:31:06.427Z,10.10
2023-05-19T09:33:45.545Z,12.20
2023-05-19T09:36:13.486Z,12.50
2023-05-19T09:38:40.950Z,8.70
2023-05-19T09:41:09.204Z,9.30
2023-05-19T09:43:36.454Z,8.60
2023-05-19T09:46:08.380Z,9.90
2023-05-19T09:48:36.205Z,9.70
2023-05-19T09:51:09.724Z,10.90
2023-05-19T09:53:38.368Z,10.60
2023-05-19T09:56:08.179Z,9.90
2023-05-19T09:58:35.906Z,13.20
2023-05-19T10:01:03.932Z,9.00
2023-05-19T10:03:34.259Z,9.00
2023-05-19T10:06:01.818Z,10.90
2023-05-19T10:08:30.303Z,8.80
2023-05-19T10:14:54.366Z,11.10
2023-05-19T10:17:22.046Z,10.00
2023-05-19T10:19:51.987Z,10.00
2023-05-19T10:22:19.125Z,9.80
2023-05-19T10:24:46.375Z,9.70
2023-05-19T10:27:15.549Z,10.60
2023-05-19T10:29:48.640Z,9.00
2023-05-19T10:32:21.745Z,8.00
2023-05-19T10:34:56.653Z,12.20
2023-05-19T10:37:32.629Z,9.00
2023-05-19T10:40:00.918Z,8.80
2023-05-19T10:42:43.879Z,9.40
2023-05-19T10:45:55.885Z,11.00
2023-05-19T10:48:23.103Z,9.40
2023-05-19T10:50:54.597Z,9.80
2023-05-19T10:53:22.234Z,7.80
2023-05-19T10:56:02.154Z,7.80
2023-05-19T10:58:44.242Z,8.50
2023-05-19T11:01:16.458Z,8.70
2023-05-19T11:03:56.644Z,13.60
2023-05-19T11:06:27.997Z,9.70
2023-05-19T11:08:58.350Z,8.90
2023-05-19T11:11:26.044Z,10.50
2023-05-19T11:13:56.773Z,7.80
2023-05-19T11:16:28.985Z,11.00
2023-05-19T11:18:59.121Z,10.20
2023-05-19T11:21:50.215Z,9.70
2023-05-19T11:24:53.793Z,13.40
2023-05-19T11:27:31.630Z,7.70
2023-05-19T11:30:23.367Z,8.10
2023-05-19T11:32:50.921Z,10.10
2023-05-19T11:35:20.917Z,8.40
2023-05-19T11:37:50.095Z,8.90
2023-05-19T11:40:18.061Z,11.30
2023-05-19T11:42:45.160Z,13.70
2023-05-19T11:45:12.550Z,10.30
2023-05-19T11:47:57.141Z,8.40
2023-05-19T11:50:28.211Z,11.90
2023-05-19T11:52:55.860Z,8.80
2023-05-19T11:55:23.294Z,11.00
2023-05-19T11:58:05.046Z,9.70
2023-05-19T12:00:39.978Z,10.30
2023-05-19T12:03:28.163Z,10.60
2023-05-19T12:05:56.282Z,10.50
2023-05-19T12:08:24.632Z,10.70
2023-05-19T12:10:52.005Z,10.40
2023-05-19T12:13:20.439Z,13.80
2023-05-19T12:15:47.642Z,8.90
2023-05-19T12:18:14.834Z,9.80
2023-05-19T12:20:42.644Z,10.20
2023-05-19T12:23:09.970Z,10.20
2023-05-19T12:25:37.919Z,9.40
2023-05-19T12:28:05.392Z,9.90
2023-05-19T12:30:34.302Z,9.60
2023-05-19T12:33:02.837Z,9.40
2023-05-19T12:35:35.549Z,10.50
2023-05-19T12:38:08.894Z,10.90
2023-05-19T12:40:37.114Z,10.80
2023-05-19T12:43:06.192Z,10.30
2023-05-19T12:45:36.642Z,9.30
2023-05-19T12:48:05.971Z,10.20
2023-05-19T12:50:33.831Z,10.30
2023-05-19T12:53:01.541Z,12.80
2023-05-19T12:55:29.289Z,9.60
2023-05-19T12:57:58.087Z,9.10
2023-05-19T13:00:28.351Z,9.90
2023-05-19T13:03:19.146Z,9.40
2023-05-19T13:05:49.884Z,8.70
2023-05-19T13:08:19.566Z,8.40
2023-05-19T13:10:48.552Z,8.70
2023-05-19T13:13:16.404Z,9.20
2023-05-19T13:15:44.969Z,10.00
2023-05-19T13:18:13.488Z,10.50
2023-05-19T13:20:44.981Z,10.20
2023-05-19T13:23:13.452Z,10.80
2023-05-19T13:25:43.025Z,10.00
2023-05-19T13:28:10.658Z,9.10
2023-05-19T13:30:40.197Z,10.20
2023-05-19T13:33:07.495Z,11.40
2023-05-19T13:35:38.552Z,9.50
2023-05-19T13:38:09.438Z,11.60
2023-05-19T13:40:37.982Z,7.90
2023-05-19T13:43:05.514Z,9.80
2023-05-19T13:45:32.749Z,9.90
2023-05-19T13:47:59.942Z,8.30
2023-05-19T13:50:27.960Z,8.70
2023-05-19T13:52:55.207Z,8.00
2023-05-19T13:55:23.293Z,8.10
2023-05-19T13:57:50.687Z,8.80
2023-05-19T14:00:18.694Z,9.10
2023-05-19T14:02:46.662Z,8.50
2023-05-19T14:05:14.078Z,9.50
2023-05-19T14:07:41.980Z,9.30
2023-05-19T14:10:09.575Z,18.00
2023-05-19T14:12:44.957Z,19.70
2023-05-19T14:15:42.544Z,14.60
2023-05-19T14:18:09.859Z,18.40
2023-05-19T14:20:37.016Z,11.60
2023-05-19T14:23:04.520Z,14.60
2023-05-19T14:25:31.693Z,10.90
2023-05-19T14:27:58.892Z,13.70
2023-05-19T14:30:25.947Z,12.20
2023-05-19T14:32:53.115Z,10.10
2023-05-19T14:35:20.756Z,9.00
2023-05-19T14:37:47.811Z,8.80
2023-05-19T14:40:15.018Z,12.00
2023-05-19T14:42:42.254Z,15.20
2023-05-19T14:45:10.061Z,9.70
2023-05-19T14:47:37.143Z,10.40
2023-05-19T14:50:04.658Z,10.50
2023-05-19T14:52:31.713Z,11.20
2023-05-19T14:54:58.861Z,9.10
2023-05-19T14:57:25.904Z,12.00
2023-05-19T14:59:53.028Z,10.10
2023-05-19T15:02:20.254Z,10.30
2023-05-19T15:04:47.764Z,10.20
2023-05-19T15:07:14.974Z,10.20
2023-05-19T15:09:42.033Z,8.90
2023-05-19T15:12:09.217Z,8.80
2023-05-19T15:14:36.282Z,8.30
2023-05-19T15:17:03.318Z,10.00
2023-05-19T15:19:30.609Z,8.60
2023-05-19T15:21:57.686Z,9.30
2023-05-19T15:24:25.003Z,7.90
2023-05-19T15:26:52.181Z,7.80
2023-05-19T15:29:20.040Z,6.50
2023-05-19T15:31:51.287Z,9.30
2023-05-19T15:34:19.777Z,6.90
2023-05-19T15:36:47.000Z,8.70
2023-05-19T15:39:14.015Z,13.20
2023-05-19T15:41:41.070Z,7.80
2023-05-19T15:44:08.266Z,7.70
2023-05-19T15:46:35.351Z,9.20
2023-05-19T15:49:03.104Z,9.20
2023-05-19T15:51:31.177Z,11.80
2023-05-19T15:53:58.243Z,8.70
2023-05-19T15:56:25.599Z,11.50
2023-05-19T15:58:52.720Z,7.90
2023-05-19T16:01:21.093Z,7.90
2023-05-19T16:03:48.237Z,7.50
2023-05-19T16:06:15.506Z,8.80
2023-05-19T16:08:42.654Z,8.10
2023-05-19T16:11:10.009Z,9.00
2023-05-19T16:13:37.207Z,7.60
2023-05-19T16:16:04.885Z,9.00
2023-05-19T16:18:31.975Z,8.20
2023-05-19T16:20:59.030Z,9.00
2023-05-19T16:23:26.954Z,10.90
2023-05-19T16:25:54.396Z,9.90
2023-05-19T16:28:23.846Z,11.00
2023-05-19T16:30:51.915Z,10.60
2023-05-19T16:33:19.092Z,13.20
2023-05-19T16:35:46.204Z,10.80
2023-05-19T16:38:13.306Z,10.90
2023-05-19T16:40:40.411Z,10.70
2023-05-19T16:43:07.522Z,18.50
2023-05-19T16:45:34.699Z,12.90
2023-05-19T16:48:02.212Z,13.60
2023-05-19T16:50:29.590Z,13.00
2023-05-19T16:52:56.692Z,12.90
2023-05-19T16:55:24.949Z,9.40
2023-05-19T16:57:52.635Z,10.50
2023-05-19T17:00:19.911Z,9.10
2023-05-19T17:02:47.111Z,10.50
2023-05-19T17:05:14.434Z,11.90
2023-05-19T17:07:41.501Z,12.50
2023-05-19T17:10:09.048Z,9.70
2023-05-19T17:12:36.403Z,10.70
2023-05-19T17:15:03.967Z,10.60
2023-05-19T17:17:31.189Z,12.80
2023-05-19T17:19:58.291Z,9.20
2023-05-19T17:22:25.399Z,12.40
2023-05-19T17:24:52.699Z,12.00
2023-05-19T17:27:19.787Z,14.30
2023-05-19T17:29:46.906Z,13.90
2023-05-19T17:32:14.196Z,12.90
2023-05-19T17:34:41.541Z,12.50
2023-05-19T17:37:08.579Z,10.00
2023-05-19T17:39:35.775Z,13.40
2023-05-19T17:42:02.911Z,12.00
2023-05-19T17:44:30.041Z,11.90
2023-05-19T17:46:57.378Z,13.70
2023-05-19T17:49:25.236Z,13.00
2023-05-19T17:51:52.974Z,11.90
2023-05-19T17:54:21.485Z,9.70
2023-05-19T17:56:50.527Z,13.70
2023-05-19T17:59:18.176Z,11.10
2023-05-19T18:01:45.907Z,10.00
2023-05-19T18:04:15.328Z,9.80
2023-05-19T18:06:47.727Z,10.60
2023-05-19T18:09:16.313Z,11.50
2023-05-19T18:11:43.414Z,11.20
2023-05-19T18:14:10.634Z,12.70
2023-05-19T18:16:37.779Z,10.30
2023-05-19T18:19:05.259Z,11.90
2023-05-19T18:21:33.295Z,11.80
2023-05-19T18:24:02.597Z,18.00
2023-05-19T18:26:30.971Z,11.30
2023-05-19T18:29:02.049Z,12.00
2023-05-19T18:31:29.276Z,10.90
2023-05-19T18:33:56.381Z,12.30
2023-05-19T18:36:23.457Z,10.90
2023-05-19T18:38:50.566Z,11.80
2023-05-19T18:41:18.025Z,11.00
2023-05-19T18:43:45.287Z,11.80
2023-05-19T18:46:12.838Z,11.30
2023-05-19T18:48:40.072Z,11.00
2023-05-19T18:51:07.285Z,11.20
2023-05-19T18:53:35.219Z,9.40
2023-05-19T18:56:05.976Z,10.50
2023-05-19T18:58:33.142Z,10.10
2023-05-19T19:01:00.262Z,8.80
2023-05-19T19:03:28.135Z,10.40
2023-05-19T19:05:56.693Z,11.40
2023-05-19T19:08:24.164Z,9.50
2023-05-19T19:10:51.741Z,11.20
2023-05-19T19:13:19.123Z,10.60
2023-05-19T19:15:46.268Z,10.80
2023-05-19T19:18:13.375Z,12.30
2023-05-19T19:20:40.579Z,10.60
2023-05-19T19:23:07.769Z,10.00
2023-05-19T19:25:35.084Z,12.00
2023-05-19T19:28:02.290Z,9.70
2023-05-19T19:30:29.456Z,11.60
2023-05-19T19:32:56.689Z,11.40
2023-05-19T19:35:23.729Z,13.10
2023-05-19T19:37:51.348Z,11.30
2023-05-19T19:40:18.543Z,10.00
2023-05-19T19:42:45.602Z,9.00
2023-05-19T19:45:15.417Z,9.80
2023-05-19T19:48:23.208Z,11.00
2023-05-19T19:50:54.299Z,10.40
2023-05-19T19:53:22.784Z,9.80
2023-05-19T19:55:57.896Z,13.00
2023-05-19T19:58:25.928Z,11.20
2023-05-19T20:01:00.207Z,11.30
2023-05-19T20:03:29.221Z,11.90
2023-05-19T20:05:56.473Z,10.00
2023-05-19T20:08:24.949Z,9.70
2023-05-19T20:10:52.138Z,11.30
2023-05-19T20:13:19.749Z,10.30
2023-05-19T20:15:47.318Z,9.70
2023-05-19T20:18:14.602Z,10.90
2023-05-19T20:20:41.740Z,10.40
2023-05-19T20:23:08.814Z,13.00
2023-05-19T20:25:54.479Z,10.30
2023-05-19T20:28:29.298Z,10.70
2023-05-19T20:30:56.329Z,12.60
2023-05-19T20:33:23.527Z,9.10
2023-05-19T20:35:50.694Z,9.90
2023-05-19T20:38:17.878Z,11.70
2023-05-19T20:40:44.984Z,10.60
2023-05-19T20:43:12.280Z,10.70
2023-05-19T20:45:39.420Z,10.20
2023-05-19T20:48:06.528Z,10.70
2023-05-19T20:50:33.901Z,11.60
2023-05-19T20:53:01.163Z,12.70
2023-05-19T20:55:28.248Z,13.10
2023-05-19T20:57:55.469Z,11.50
2023-05-19T21:00:22.759Z,14.30
2023-05-19T21:02:49.999Z,13.60
2023-05-19T21:05:17.177Z,12.90
2023-05-19T21:07:44.355Z,10.40
2023-05-19T21:10:13.876Z,15.00
2023-05-19T21:12:40.995Z,10.70
2023-05-19T21:15:08.625Z,11.60
2023-05-19T21:17:35.730Z,10.50
2023-05-19T21:20:03.412Z,10.90
2023-05-19T21:22:30.473Z,10.80
2023-05-19T21:24:57.602Z,10.40
2023-05-19T21:27:25.090Z,11.30
2023-05-19T21:29:55.167Z,10.60
2023-05-19T21:32:22.272Z,11.40
2023-05-19T21:34:49.892Z,10.90
2023-05-19T21:37:17.341Z,12.00
2023-05-19T21:39:44.623Z,9.70
2023-05-19T21:42:44.061Z,10.00
2023-05-19T21:45:11.181Z,10.50
2023-05-19T21:47:38.329Z,11.60
2023-05-19T21:50:06.284Z,9.90
2023-05-19T21:52:35.491Z,11.30
2023-05-19T21:55:02.841Z,10.80
2023-05-19T21:57:29.864Z,12.00
2023-05-19T21:59:56.908Z,10.60
2023-05-19T22:02:24.086Z,11.10
2023-05-19T22:04:51.262Z,14.80
2023-05-19T22:07:18.318Z,10.80
2023-05-19T22:09:46.966Z,11.40
2023-05-19T22:12:15.943Z,11.50
2023-05-19T22:14:43.019Z,11.10
2023-05-19T22:17:10.186Z,11.20
2023-05-19T22:19:37.231Z,10.90
2023-05-19T22:22:13.178Z,10.40
2023-05-19T22:24:52.199Z,11.10
2023-05-19T22:27:19.317Z,11.90
2023-05-19T22:29:46.453Z,13.10
2023-05-19T22:32:16.244Z,12.80
2023-05-19T22:34:44.180Z,12.10
2023-05-19T22:37:11.447Z,11.30
2023-05-19T22:39:39.178Z,11.30
2023-05-19T22:42:06.290Z,12.40
2023-05-19T22:44:33.386Z,13.70
2023-05-19T22:47:00.513Z,11.70
2023-05-19T22:49:29.355Z,10.80
2023-05-19T22:51:56.431Z,11.10
2023-05-19T22:54:23.572Z,10.20
2023-05-19T22:56:50.704Z,11.70
2023-05-19T22:59:17.999Z,11.40
2023-05-19T23:01:46.061Z,13.20
2023-05-19T23:04:13.440Z,11.40
2023-05-19T23:06:40.642Z,11.80
2023-05-19T23:09:07.716Z,12.90
2023-05-19T23:11:35.403Z,11.80
2023-05-19T23:14:02.612Z,10.90
2023-05-19T23:16:29.779Z,13.50
2023-05-19T23:18:57.122Z,12.20
2023-05-19T23:21:24.296Z,12.40
2023-05-19T23:23:51.586Z,10.90
2023-05-19T23:26:18.661Z,11.10
2023-05-19T23:28:45.865Z,10.90
2023-05-19T23:31:12.973Z,11.10
2023-05-19T23:33:40.155Z,11.90
2023-05-19T23:36:08.792Z,13.40
2023-05-19T23:38:36.866Z,11.40
2023-05-19T23:41:04.566Z,11.60
2023-05-19T23:43:34.354Z,11.70
2023-05-19T23:46:01.558Z,12.90
2023-05-19T23:48:29.090Z,11.90
2023-05-19T23:50:57.452Z,13.20
2023-05-19T23:53:24.919Z,11.00
2023-05-19T23:55:52.058Z,12.70
2023-05-19T23:58:19.355Z,15.40
